Flight Track Log - Related Links

Times and Time Zones

All times are in EDT time to prevent confusion due to time zone crossing. See the N828AF flight status page for this flight to view local times or setup timezone preferences in your user account.


Time Position Orientation Groundspeed Altitude Reporting Facility
EDT Latitude Longitude Course Direction KTS MPH feet Rate Location/Type
Thu 08:22:09 AM 39.8000 -85.9333 166° South 179 206 2,700  Level Indianapolis TRACON
Thu 08:23:03 AM 39.7500 -85.9167 166° South 214 246 3,100 941 Climbing Indianapolis TRACON
Thu 08:23:51 AM 39.7167 -85.9500 218° Southwest 193 222 4,300 1,333 Climbing Indianapolis TRACON
Thu 08:24:51 AM 39.6667 -86.0000 218° Southwest 209 241 5,500 1,376 Climbing Indianapolis TRACON
Thu 08:25:40 AM 39.6339 -86.0128 197° South 229 264 6,800 1,855 Climbing Indianapolis Center
Thu 08:26:41 AM 39.5772 -86.0383 199° South 214 246 8,900 2,164 Climbing Indianapolis Center
Thu 08:27:42 AM 39.5103 -86.0686 199° South 212 244 11,200 1,869 Climbing Indianapolis Center
Thu 08:28:43 AM 39.4550 -86.0947 200° South 212 244 12,700 1,525 Climbing Indianapolis Center
Thu 08:29:44 AM 39.3939 -86.1089 190° South 218 251 14,300 1,610 Climbing Indianapolis Center
Thu 08:30:46 AM 39.3367 -86.0633 148° Southeast 237 273 16,000 1,415 Climbing Indianapolis Center
Thu 08:31:47 AM 39.2794 -86.0031 141° Southeast 254 292 17,200 1,328 Climbing Indianapolis Center
Thu 08:32:48 AM 39.2225 -85.9433 141° Southeast 259 298 18,700 1,426 Climbing Indianapolis Center
Thu 08:33:49 AM 39.1631 -85.8825 142° Southeast 267 307 20,100 1,317 Climbing Indianapolis Center
Thu 08:34:51 AM 39.1017 -85.8194 141° Southeast 275 316 21,400 1,366 Climbing Indianapolis Center
Thu 08:35:52 AM 39.0428 -85.7575 141° Southeast 274 315 22,900 1,377 Climbing Indianapolis Center
Thu 08:36:53 AM 38.9850 -85.6986 142° Southeast 267 307 24,200 1,279 Climbing Indianapolis Center
Thu 08:37:54 AM 38.9256 -85.6367 141° Southeast 271 312 25,500 1,171 Climbing Indianapolis Center
Thu 08:38:56 AM 38.8675 -85.5775 142° Southeast 265 305 26,600 1,024 Climbing Indianapolis Center
Thu 08:39:57 AM 38.8056 -85.5142 141° Southeast 280 322 27,600 1,082 Climbing Indianapolis Center
Thu 08:40:58 AM 38.7444 -85.4503 141° Southeast 282 325 28,800 1,073 Climbing Indianapolis Center
Thu 08:42:00 AM 38.6819 -85.3881 142° Southeast 281 323 29,800 927 Climbing Indianapolis Center
Thu 08:43:01 AM 38.6069 -85.3111 141° Southeast 284 327 30,700 590 Climbing Indianapolis Center
Thu 08:44:02 AM 38.5400 -85.2431 142° Southeast 300 345 31,000 146 Climbing Indianapolis Center
Thu 08:45:04 AM 38.4658 -85.1694 142° Southeast 322 371 31,000  Level Indianapolis Center
Thu 08:46:05 AM 38.3900 -85.0914 141° Southeast 342 394 31,000  Level Indianapolis Center
Thu 08:47:06 AM 38.3097 -85.0133 143° Southeast 361 415 31,000  Level Indianapolis Center
Thu 08:48:07 AM 38.2306 -84.9333 142° Southeast 364 419 31,000  Level Indianapolis Center
Thu 08:49:09 AM 38.1497 -84.8503 141° Southeast 373 429 31,000  Level Indianapolis Center
Thu 08:50:10 AM 38.0681 -84.7692 142° Southeast 373 429 31,000  Level Indianapolis Center
Thu 08:51:11 AM 37.9717 -84.6739 142° Southeast 376 433 31,000  Level Indianapolis Center
Thu 08:52:13 AM 37.8892 -84.5917 142° Southeast 377 434 31,000  Level Indianapolis Center
Thu 08:53:14 AM 37.8078 -84.5117 142° Southeast 372 428 31,000  Level Indianapolis Center
Thu 08:54:15 AM 37.7250 -84.4303 142° Southeast 376 433 31,000  Level Indianapolis Center
Thu 08:55:17 AM 37.6419 -84.3500 143° Southeast 374 430 31,000  Level Indianapolis Center
Thu 08:56:18 AM 37.5586 -84.2689 142° Southeast 378 435 31,000  Level Indianapolis Center
Thu 08:57:19 AM 37.4761 -84.1872 142° Southeast 378 435 31,000  Level Indianapolis Center
Thu 08:58:21 AM 37.3925 -84.1050 142° Southeast 381 438 31,000  Level Indianapolis Center
Thu 08:59:22 AM 37.2950 -84.0106 142° Southeast 381 438 31,000  Level Indianapolis Center
Thu 09:00:23 AM 37.2119 -83.9286 142° Southeast 380 437 31,000  Level Indianapolis Center
Thu 09:01:25 AM 37.1286 -83.8486 143° Southeast 377 434 31,000  Level Indianapolis Center
Thu 09:02:26 AM 37.0458 -83.7692 143° Southeast 377 434 31,000  Level Indianapolis Center
Thu 09:03:28 AM 36.9628 -83.6897 143° Southeast 378 435 31,000  Level Indianapolis Center
Thu 09:04:29 AM 36.8792 -83.6100 143° Southeast 377 434 31,000  Level Indianapolis Center
Thu 09:05:30 AM 36.7964 -83.5311 143° Southeast 377 434 31,000  Level Indianapolis Center
Thu 09:06:32 AM 36.7000 -83.4389 142° Southeast 376 433 31,000  Level Indianapolis Center
Thu 09:07:33 AM 36.6181 -83.3619 143° Southeast 373 429 31,000  Level Indianapolis Center
Thu 09:07:53 AM 36.5861 -83.3356 146° Southeast 382 440 31,000  Level Atlanta Center
Thu 09:08:53 AM 36.5022 -83.2589 144° Southeast 382 440 31,000  Level Atlanta Center
Thu 09:09:53 AM 36.4203 -83.1794 142° Southeast 382 440 31,000  Level Atlanta Center
Thu 09:10:53 AM 36.3361 -83.1006 143° Southeast 382 440 31,000  Level Atlanta Center
Thu 09:11:53 AM 36.2542 -83.0217 142° Southeast 382 440 31,000  Level Atlanta Center
Thu 09:12:53 AM 36.1703 -82.9456 144° Southeast 382 440 31,000  Level Atlanta Center
Thu 09:13:53 AM 36.0881 -82.8669 142° Southeast 382 440 31,000  Level Atlanta Center
Thu 09:14:53 AM 36.0061 -82.7911 143° Southeast 382 440 31,000  Level Atlanta Center
Thu 09:15:53 AM 35.9197 -82.7156 145° Southeast 382 440 31,000  Level Atlanta Center
Thu 09:16:53 AM 35.8333 -82.6453 147° Southeast 382 440 31,000  Level Atlanta Center
Thu 09:17:53 AM 35.7469 -82.5725 146° Southeast 377 434 31,000  Level Atlanta Center
Thu 09:18:53 AM 35.6628 -82.5025 146° Southeast 377 434 31,000  Level Atlanta Center
Thu 09:19:53 AM 35.5764 -82.4328 147° Southeast 377 434 31,000  Level Atlanta Center
Thu 09:20:53 AM 35.4878 -82.3606 146° Southeast 377 434 31,000  Level Atlanta Center
Thu 09:21:53 AM 35.4011 -82.2933 148° Southeast 377 434 31,000  Level Atlanta Center
Thu 09:22:53 AM 35.3125 -82.2214 146° Southeast 377 434 31,000  Level Atlanta Center
Thu 09:23:53 AM 35.2364 -82.1594 146° Southeast 377 434 31,000  Level Atlanta Center
Thu 09:24:53 AM 35.1500 -82.0906 147° Southeast 377 434 31,000  Level Atlanta Center
Thu 09:25:54 AM 35.0633 -82.0189 146° Southeast 377 434 31,000  Level Atlanta Center
Thu 09:26:53 AM 34.9764 -81.9500 147° Southeast 377 434 31,000  Level Atlanta Center
Thu 09:27:53 AM 34.8875 -81.8789 147° Southeast 371 427 31,000  Level Atlanta Center
Thu 09:28:53 AM 34.8028 -81.8103 146° Southeast 371 427 31,000 -35 Level Atlanta Center
Thu 09:30:43 AM 34.6442 -81.6839 147° Southeast 383 441 30,900 -529 Descending Jacksonville Center
Thu 09:31:43 AM 34.5539 -81.6119 147° Southeast 383 441 29,500 -1,150 Descending Jacksonville Center
Thu 09:32:43 AM 34.4572 -81.5353 147° Southeast 391 450 28,600 -950 Descending Jacksonville Center
Thu 09:33:43 AM 34.3644 -81.4614 147° Southeast 405 466 27,600 -800 Descending Jacksonville Center
Thu 09:34:43 AM 34.2861 -81.3594 133° Southeast 410 472 27,000 -500 Descending Jacksonville Center
Thu 09:35:43 AM 34.2367 -81.2372 116° Southeast 402 463 26,600 -1,000 Descending Jacksonville Center
Thu 09:36:43 AM 34.1478 -81.1511 141° Southeast 402 463 25,000 -1,500 Descending Jacksonville Center
Thu 09:37:43 AM 34.0428 -81.1006 158° South 397 457 23,600 -1,650 Descending Jacksonville Center
Thu 09:38:43 AM 33.9461 -81.0500 157° South 387 445 21,700 -2,231 Descending Jacksonville Center
Thu 09:39:44 AM 33.8472 -81.0022 158° South 382 440 19,100 -2,300 Descending Jacksonville Center
Thu 09:40:43 AM 33.7567 -80.9517 155° Southeast 377 434 17,100 -2,168 Descending Jacksonville Center
Thu 09:41:43 AM 33.6664 -80.9086 158° South 364 419 14,800 -1,950 Descending Jacksonville Center
Thu 09:42:43 AM 33.5822 -80.8633 156° South 350 403 13,200 -750 Descending Jacksonville Center
Thu 09:43:43 AM 33.5044 -80.8225 156° South 331 381 13,300  Climbing Jacksonville Center
Thu 09:44:43 AM 33.4244 -80.7822 157° South 319 367 13,200 -50 Descending Jacksonville Center
Thu 09:45:44 AM 33.3381 -80.7394 158° South 319 367 13,200 -150 Level Jacksonville Center
Thu 09:46:43 AM 33.2539 -80.6969 157° South 319 367 12,900 -958 Descending Jacksonville Center
Thu 09:47:43 AM 33.1697 -80.6542 157° South 324 373 11,300 -1,750 Descending Jacksonville Center
Thu 09:48:43 AM 33.1078 -80.5889 139° Southeast 314 361 9,400 -1,650 Descending Jacksonville Center
Thu 09:49:43 AM 33.0647 -80.5131 124° Southeast 287 330 8,000 -700 Descending Jacksonville Center
Thu 09:50:43 AM 33.0194 -80.4300 123° Southeast 275 316 8,000  Level Jacksonville Center
Thu 09:51:43 AM 32.9761 -80.3594 126° Southeast 263 303 8,000 -350 Level Jacksonville Center
Thu 09:52:43 AM 32.9189 -80.3067 142° Southeast 244 281 7,300 -900 Descending Jacksonville Center
Thu 09:53:43 AM 32.8453 -80.2914 170° South 244 281 6,200 -1,100 Descending Jacksonville Center
Thu 09:55:00 AM 32.8747 -80.1533 79° East  Level Estimated
Thu 10:02:00 AM 32.8833 -80.0333 79° East  Level FlightAware Approximate

Login

Don't have an account? Register now (free) for customized features, flight alerts, and more!